Time;durP1;ratioP1;P1;durP2;ratioP2;P2;SDS_P1;SDS_P2;PMS_P1;PMS_P2;Temp;Humidity;BMP_temperature;BMP_pressure;BME280_temperature;BME280_humidity;BME280_pressure;Samples;Min_cycle;Max_cycle;Signal;HPM_P1;HPM_P2
2023/11/18 00:01:05;;;;;;;26.23;14.38;;;;;;;4.81;100.00;101875.19;4990217;28;20427;-89
2023/11/18 00:03:30;;;;;;;27.93;14.17;;;;;;;4.70;100.00;101876.81;5007072;28;20030;-89
2023/11/18 00:05:56;;;;;;;28.30;14.90;;;;;;;4.74;100.00;101879.16;4984408;28;20026;-88
2023/11/18 00:08:21;;;;;;;26.83;14.37;;;;;;;4.82;100.00;101884.84;4979848;28;20712;-89
2023/11/18 00:10:47;;;;;;;34.27;15.80;;;;;;;4.76;100.00;101876.44;4986820;28;20778;-88
2023/11/18 00:13:13;;;;;;;32.17;16.15;;;;;;;4.74;100.00;101875.69;4980475;28;20872;-89
2023/11/18 00:15:38;;;;;;;33.55;15.68;;;;;;;4.64;100.00;101862.19;4984834;28;20133;-88
2023/11/18 00:18:03;;;;;;;28.27;15.57;;;;;;;4.71;100.00;101873.25;5008057;28;20061;-88
2023/11/18 00:20:30;;;;;;;31.37;15.23;;;;;;;4.68;100.00;101870.75;4988223;28;20041;-88
2023/11/18 00:22:56;;;;;;;28.77;15.27;;;;;;;4.70;100.00;101867.06;4988437;28;20296;-89
2023/11/18 00:25:22;;;;;;;27.23;15.02;;;;;;;4.65;100.00;101877.94;4991630;28;20037;-88
2023/11/18 00:27:47;;;;;;;29.15;14.85;;;;;;;4.49;100.00;101863.97;4974389;28;20041;-89
2023/11/18 00:30:15;;;;;;;30.38;14.15;;;;;;;4.61;100.00;101872.94;4991290;28;20026;-88
2023/11/18 00:32:40;;;;;;;31.05;13.95;;;;;;;4.64;100.00;101883.34;4972949;28;20030;-89
2023/11/18 00:35:06;;;;;;;31.15;14.75;;;;;;;4.69;100.00;101869.84;4991481;28;20038;-88
2023/11/18 00:37:33;;;;;;;24.60;13.60;;;;;;;4.67;100.00;101877.84;4991625;28;20527;-88
2023/11/18 00:39:58;;;;;;;;;;;;;;;4.49;100.00;101873.72;4975287;28;20018;-88
2023/11/18 00:42:23;;;;;;;30.63;13.80;;;;;;;4.48;100.00;101879.97;4987802;28;19933;-87
2023/11/18 00:44:49;;;;;;;32.85;14.25;;;;;;;4.43;100.00;101869.66;4990941;28;20039;-88
2023/11/18 00:47:14;;;;;;;25.00;12.17;;;;;;;4.49;100.00;101879.00;4991390;28;20042;-87
2023/11/18 00:49:40;;;;;;;26.03;13.77;;;;;;;4.50;100.00;101886.84;4975233;28;20029;-88
2023/11/18 00:52:05;;;;;;;28.08;14.13;;;;;;;4.58;100.00;101897.78;4983379;28;20273;-87
2023/11/18 00:54:30;;;;;;;28.27;14.00;;;;;;;4.54;100.00;101890.16;4991623;28;20045;-88
2023/11/18 00:56:56;;;;;;;27.33;14.37;;;;;;;4.48;100.00;101882.59;4975580;28;20036;-88
2023/11/18 00:59:21;;;;;;;30.43;14.67;;;;;;;4.43;100.00;101880.25;4991724;28;20053;-88
2023/11/18 01:01:47;;;;;;;29.30;15.03;;;;;;;4.36;100.00;101874.47;4975045;28;21018;-88
2023/11/18 01:04:33;;;;;;;35.03;15.95;;;;;;;4.52;100.00;101889.38;5008480;28;20109;-88
2023/11/18 01:07:17;;;;;;;29.45;14.75;;;;;;;4.36;100.00;101874.47;4994084;28;20049;-88
2023/11/18 01:10:01;;;;;;;33.00;15.45;;;;;;;4.37;100.00;101872.69;4993666;28;20096;-88
2023/11/18 01:12:45;;;;;;;34.20;16.88;;;;;;;4.37;100.00;101877.97;4993785;28;20084;-88
2023/11/18 01:15:32;;;;;;;36.40;17.70;;;;;;;4.27;100.00;101864.47;4997101;28;20056;-88
2023/11/18 01:18:17;;;;;;;30.02;13.48;;;;;;;4.34;100.00;101864.94;5007537;28;20123;-88
2023/11/18 01:21:02;;;;;;;26.55;13.25;;;;;;;4.41;100.00;101869.75;4997482;28;20044;-88
2023/11/18 01:23:46;;;;;;;33.45;15.48;;;;;;;4.29;100.00;101869.69;4997220;28;20061;-88
2023/11/18 01:26:30;;;;;;;31.30;15.10;;;;;;;4.40;100.00;101868.06;4997528;28;20049;-88
2023/11/18 01:29:14;;;;;;;33.63;16.00;;;;;;;4.39;100.00;101863.72;4996915;28;20084;-88
2023/11/18 01:31:58;;;;;;;28.58;14.15;;;;;;;4.42;100.00;101867.94;4997122;28;20045;-88
2023/11/18 01:34:43;;;;;;;33.58;15.05;;;;;;;4.41;100.00;101866.28;4996665;28;20092;-88
2023/11/18 01:37:27;;;;;;;25.70;12.15;;;;;;;4.36;100.00;101868.34;4997544;28;20301;-88
2023/11/18 01:40:15;;;;;;;28.80;14.63;;;;;;;4.36;100.00;101868.34;4997066;28;20136;-88
2023/11/18 01:42:59;;;;;;;32.38;15.57;;;;;;;4.36;100.00;101865.72;5004270;28;20137;-89
2023/11/18 01:45:43;;;;;;;28.27;15.15;;;;;;;4.32;100.00;101865.03;4996836;28;20072;-87
2023/11/18 01:48:29;;;;;;;28.23;14.93;;;;;;;4.39;100.00;101868.16;4996800;28;20049;-88
2023/11/18 01:51:14;;;;;;;26.75;13.98;;;;;;;4.47;100.00;101876.44;4996897;28;20137;-88
2023/11/18 01:53:59;;;;;;;32.88;14.30;;;;;;;4.43;100.00;101875.81;4997112;28;20055;-87
2023/11/18 01:56:47;;;;;;;38.13;16.58;;;;;;;4.48;100.00;101864.94;5011738;28;20053;-88
2023/11/18 01:59:33;;;;;;;30.25;16.35;;;;;;;4.46;100.00;101866.81;4996704;28;20049;-88
2023/11/18 02:01:59;;;;;;;31.80;15.90;;;;;;;4.48;100.00;101872.88;4986177;28;20037;-87
2023/11/18 02:04:25;;;;;;;30.05;14.40;;;;;;;4.50;100.00;101884.22;4993748;28;20507;-88
2023/11/18 02:06:52;;;;;;;31.02;15.48;;;;;;;4.51;100.00;101872.69;4977465;28;20048;-88
2023/11/18 02:09:19;;;;;;;33.92;16.02;;;;;;;4.58;100.00;101879.28;4977938;28;20018;-88
2023/11/18 02:11:50;;;;;;;32.75;16.38;;;;;;;4.61;100.00;101878.22;5000111;28;20041;-88
2023/11/18 02:14:18;;;;;;;32.60;15.25;;;;;;;4.56;100.00;101875.88;4977525;28;20132;-87
2023/11/18 02:16:45;;;;;;;36.75;16.65;;;;;;;4.44;100.00;101856.34;4977837;28;20032;-88
2023/11/18 02:19:24;;;;;;;27.75;14.68;;;;;;;4.52;100.00;101863.81;4984134;28;20041;-88
2023/11/18 02:21:51;;;;;;;31.92;15.30;;;;;;;4.43;100.00;101865.22;4992121;28;20037;-88
2023/11/18 02:24:27;;;;;;;31.38;15.73;;;;;;;4.37;100.00;101854.16;4977152;28;20069;-88
2023/11/18 02:26:56;;;;;;;33.95;14.82;;;;;;;4.28;100.00;101860.88;4993332;28;20034;-87
2023/11/18 02:29:21;;;;;;;41.80;15.88;;;;;;;4.14;100.00;101843.22;4986798;28;20088;-88
2023/11/18 02:31:51;;;;;;;28.00;14.15;;;;;;;3.99;100.00;101823.88;4991576;28;20500;-89
2023/11/18 02:34:23;;;;;;;26.65;13.50;;;;;;;3.91;100.00;101825.28;4993066;28;20045;-88
2023/11/18 02:36:50;;;;;;;30.23;14.05;;;;;;;3.82;100.00;101829.34;4993104;28;20080;-88
2023/11/18 02:39:28;;;;;;;25.48;13.00;;;;;;;3.83;100.00;101830.19;4979347;28;20022;-88
2023/11/18 02:41:56;;;;;;;30.73;14.02;;;;;;;3.78;100.00;101828.66;4984083;28;20463;-87
2023/11/18 02:44:23;;;;;;;26.05;14.65;;;;;;;3.75;100.00;101836.78;5001161;28;20077;-89
2023/11/18 02:46:48;;;;;;;29.90;15.52;;;;;;;3.78;100.00;101844.50;4993141;28;20503;-88
2023/11/18 02:49:14;;;;;;;28.65;13.18;;;;;;;3.76;100.00;101856.09;4977056;28;20057;-88
2023/11/18 02:51:39;;;;;;;28.27;12.57;;;;;;;3.73;100.00;101857.13;4976602;28;20519;-87
2023/11/18 02:54:10;;;;;;;29.08;13.52;;;;;;;3.78;100.00;101868.28;4977990;28;20297;-88
2023/11/18 02:56:39;;;;;;;25.58;13.85;;;;;;;3.85;100.00;101873.22;4984653;28;20038;-88
2023/11/18 02:59:05;;;;;;;32.72;15.00;;;;;;;3.91;100.00;101864.91;4984498;28;20028;-88
2023/11/18 03:01:31;;;;;;;31.58;15.40;;;;;;;3.90;100.00;101858.78;4984575;28;20042;-88
2023/11/18 03:03:58;;;;;;;31.40;15.65;;;;;;;3.88;100.00;101859.81;4992537;28;20088;-88
2023/11/18 03:06:23;;;;;;;38.17;16.77;;;;;;;3.85;100.00;101849.44;4992820;28;20454;-88
2023/11/18 03:08:52;;;;;;;32.57;16.20;;;;;;;3.80;100.00;101847.91;4976346;28;20018;-88
2023/11/18 03:11:22;;;;;;;43.33;17.45;;;;;;;3.83;100.00;101852.16;4976093;28;20312;-88
2023/11/18 03:13:47;;;;;;;37.28;15.75;;;;;;;3.72;100.00;101852.81;4978682;28;20069;-88
2023/11/18 03:16:13;;;;;;;36.10;16.33;;;;;;;3.82;100.00;101868.97;4986700;28;20053;-87
2023/11/18 03:18:40;;;;;;;29.17;15.48;;;;;;;3.90;100.00;101884.34;4960018;28;20409;-88
2023/11/18 03:21:14;;;;;;;29.33;14.40;;;;;;;3.96;100.00;101897.22;4976346;28;20029;-88
2023/11/18 03:23:41;;;;;;;35.60;16.52;;;;;;;3.98;100.00;101898.81;4991995;28;20065;-88
2023/11/18 03:26:12;;;;;;;27.52;14.40;;;;;;;4.01;100.00;101897.78;4992626;28;20022;-89
2023/11/18 03:28:39;;;;;;;34.03;16.35;;;;;;;4.07;100.00;101915.03;5009625;28;20037;-87
2023/11/18 03:31:05;;;;;;;30.58;15.63;;;;;;;4.11;100.00;101920.06;4973311;28;20073;-88
2023/11/18 03:33:31;;;;;;;31.42;15.05;;;;;;;4.13;100.00;101920.81;5005826;28;20396;-88
2023/11/18 03:35:57;;;;;;;34.28;17.33;;;;;;;4.18;100.00;101924.03;5009489;28;20032;-88
2023/11/18 03:38:23;;;;;;;34.07;15.30;;;;;;;4.23;100.00;101935.16;4983323;28;20129;-89
2023/11/18 03:40:49;;;;;;;28.55;14.77;;;;;;;4.29;100.00;101925.19;4975440;28;20284;-88
2023/11/18 03:43:14;;;;;;;32.47;16.35;;;;;;;4.34;100.00;101917.84;4983760;28;20685;-89
2023/11/18 03:45:40;;;;;;;32.95;15.65;;;;;;;4.39;100.00;101921.03;4983722;28;20084;-88
2023/11/18 03:48:07;;;;;;;29.55;15.50;;;;;;;4.39;100.00;101921.03;4991657;28;20400;-88
2023/11/18 03:50:35;;;;;;;34.97;17.75;;;;;;;4.28;100.00;101915.53;4985431;28;20026;-88
2023/11/18 03:53:04;;;;;;;38.05;18.70;;;;;;;4.27;100.00;101916.50;4987227;28;20133;-88
2023/11/18 03:55:30;;;;;;;35.10;16.02;;;;;;;4.38;100.00;101925.47;4975558;28;20071;-88
2023/11/18 03:57:56;;;;;;;36.75;16.17;;;;;;;4.31;100.00;101924.16;4991896;28;20085;-89
2023/11/18 04:00:29;;;;;;;30.55;16.15;;;;;;;4.36;100.00;101921.22;4985545;28;20134;-89
2023/11/18 04:02:58;;;;;;;35.05;15.90;;;;;;;4.44;100.00;101924.25;4984837;28;20052;-88
2023/11/18 04:05:23;;;;;;;34.95;17.58;;;;;;;4.43;100.00;101930.50;4976124;28;20021;-89
2023/11/18 04:08:06;;;;;;;40.08;16.52;;;;;;;4.42;100.00;101934.94;4983971;28;20033;-89
2023/11/18 04:10:32;;;;;;;36.20;16.55;;;;;;;4.29;100.00;101914.63;4985173;28;20030;-89
2023/11/18 04:12:57;;;;;;;34.57;15.60;;;;;;;4.25;100.00;101919.22;4991398;28;20025;-90
2023/11/18 04:15:22;;;;;;;30.80;16.17;;;;;;;4.38;100.00;101929.94;4975720;28;20288;-88
2023/11/18 04:17:48;;;;;;;35.90;16.63;;;;;;;4.41;100.00;101941.16;4975921;28;20029;-87
2023/11/18 04:20:15;;;;;;;33.67;17.17;;;;;;;4.45;100.00;101941.84;4991700;28;20492;-88
2023/11/18 04:22:41;;;;;;;30.60;15.15;;;;;;;4.38;100.00;101932.56;4983421;28;20795;-89
2023/11/18 04:25:11;;;;;;;51.40;18.35;;;;;;;4.39;100.00;101942.19;4983787;28;20041;-88
2023/11/18 04:27:40;;;;;;;38.95;16.15;;;;;;;4.32;100.00;101943.50;4991143;28;20070;-88
2023/11/18 04:30:08;;;;;;;36.03;15.52;;;;;;;4.41;100.00;101945.59;4991739;28;20069;-88
2023/11/18 04:32:34;;;;;;;26.23;12.77;;;;;;;4.47;100.00;101947.00;4975257;28;20435;-88
2023/11/18 04:35:06;;;;;;;28.90;14.68;;;;;;;4.48;100.00;101954.84;4980639;28;20037;-88
2023/11/18 04:37:33;;;;;;;31.35;15.13;;;;;;;4.36;100.00;101951.16;4991681;28;20033;-88
2023/11/18 04:39:58;;;;;;;27.88;13.30;;;;;;;4.36;100.00;101943.22;4983124;28;20046;-89
2023/11/18 04:42:24;;;;;;;28.63;13.47;;;;;;;4.43;100.00;101943.72;4975020;28;20065;-88
2023/11/18 04:44:50;;;;;;;25.33;12.30;;;;;;;4.42;100.00;101936.72;4974762;28;20288;-88
2023/11/18 04:47:18;;;;;;;30.10;14.10;;;;;;;4.43;100.00;101927.84;4971750;28;20081;-88
2023/11/18 04:49:44;;;;;;;32.33;13.77;;;;;;;4.35;100.00;101923.00;4989486;28;20054;-88
2023/11/18 04:52:09;;;;;;;28.70;14.07;;;;;;;4.29;100.00;101914.63;4978442;28;20073;-88
2023/11/18 04:54:35;;;;;;;25.33;12.87;;;;;;;4.31;100.00;101915.34;4987064;28;20264;-88
2023/11/18 04:57:01;;;;;;;;;;;;;;;4.34;100.00;101912.53;4987153;28;20041;-88
2023/11/18 04:59:26;;;;;;;27.27;13.10;;;;;;;4.39;100.00;101916.59;4997897;28;19917;-89
2023/11/18 05:01:53;;;;;;;28.00;13.63;;;;;;;4.42;100.00;101924.38;4972714;28;20030;-89
2023/11/18 05:04:18;;;;;;;34.38;16.13;;;;;;;4.40;100.00;101917.44;4994454;28;20041;-88
2023/11/18 05:06:44;;;;;;;30.40;14.25;;;;;;;4.36;100.00;101910.66;4976988;28;20034;-88
2023/11/18 05:09:09;;;;;;;34.83;13.30;;;;;;;4.34;100.00;101902.81;4978507;28;20038;-89
2023/11/18 05:11:35;;;;;;;29.43;13.77;;;;;;;4.35;100.00;101908.94;4978585;28;20030;-89
2023/11/18 05:14:03;;;;;;;32.65;14.40;;;;;;;4.35;100.00;101908.94;5002222;28;20650;-88
2023/11/18 05:16:29;;;;;;;30.67;12.80;;;;;;;4.34;100.00;101902.81;4978179;28;20026;-89
2023/11/18 05:18:54;;;;;;;23.88;12.13;;;;;;;4.29;100.00;101912.81;4993922;28;20087;-88
2023/11/18 05:21:20;;;;;;;26.20;14.13;;;;;;;4.33;100.00;101910.81;4977800;28;20054;-88
2023/11/18 05:23:48;;;;;;;22.83;11.98;;;;;;;4.39;100.00;101913.09;4991668;28;20092;-88
2023/11/18 05:26:14;;;;;;;25.33;12.97;;;;;;;4.32;100.00;101909.13;5010757;28;20046;-88
2023/11/18 05:28:39;;;;;;;31.30;14.93;;;;;;;4.21;100.00;101902.72;4993824;28;20276;-88
2023/11/18 05:31:06;;;;;;;31.90;13.55;;;;;;;4.31;100.00;101907.41;4985841;28;20030;-89
2023/11/18 05:33:34;;;;;;;;;;;;;;;4.30;100.00;101905.72;5002725;28;20045;-89
2023/11/18 05:35:59;;;;;;;25.30;12.80;;;;;;;4.17;100.00;101895.91;4993792;28;20383;-89
2023/11/18 05:38:27;;;;;;;28.55;14.20;;;;;;;4.21;100.00;101896.56;4981054;28;20049;-89
2023/11/18 05:40:56;;;;;;;29.52;14.20;;;;;;;4.04;100.00;101889.66;4971910;28;20033;-87
2023/11/18 05:43:29;;;;;;;31.38;12.68;;;;;;;4.00;100.00;101882.84;5001863;28;20104;-88
2023/11/18 05:48:44;;;;;;;28.58;13.55;;;;;;;4.06;100.00;101898.34;4993502;28;20037;-88
2023/11/18 05:51:10;;;;;;;27.15;11.75;;;;;;;4.08;100.00;101891.19;5003015;28;20435;-89
2023/11/18 05:53:45;;;;;;;26.13;12.80;;;;;;;4.15;100.00;101900.44;4994044;28;20095;-88
2023/11/18 05:56:11;;;;;;;29.43;12.37;;;;;;;4.17;100.00;101895.91;5005416;28;20511;-89
2023/11/18 05:58:37;;;;;;;24.10;12.00;;;;;;;4.18;100.00;101886.19;4983719;28;20487;-89
2023/11/18 06:01:02;;;;;;;20.83;12.38;;;;;;;4.15;100.00;101889.88;4992553;28;20050;-87
2023/11/18 06:03:28;;;;;;;27.45;12.32;;;;;;;4.19;100.00;101883.44;4978115;28;20053;-89
2023/11/18 06:05:54;;;;;;;26.55;12.95;;;;;;;4.20;100.00;101873.72;4983466;28;20042;-88
2023/11/18 06:08:21;;;;;;;23.20;11.55;;;;;;;4.19;100.00;101872.88;4981776;28;20076;-88
2023/11/18 06:10:48;;;;;;;31.92;11.95;;;;;;;4.16;100.00;101872.19;4989232;28;20030;-88
2023/11/18 06:13:16;;;;;;;23.90;11.82;;;;;;;4.23;100.00;101874.38;4993947;28;20523;-88
2023/11/18 06:15:44;;;;;;;24.67;11.38;;;;;;;4.17;100.00;101868.63;4987742;28;20022;-88
2023/11/18 06:18:23;;;;;;;24.38;11.50;;;;;;;4.21;100.00;101876.28;4977582;28;20476;-88
2023/11/18 06:20:48;;;;;;;27.15;13.45;;;;;;;4.22;100.00;101877.13;4970076;28;20026;-88
2023/11/18 06:23:18;;;;;;;23.83;11.30;;;;;;;4.06;100.00;101852.56;4975381;28;20045;-89
2023/11/18 06:25:45;;;;;;;28.27;13.00;;;;;;;4.05;100.00;101853.50;4976118;28;20710;-88
2023/11/18 06:28:11;;;;;;;23.65;11.15;;;;;;;4.01;100.00;101847.56;4987515;28;20120;-88
2023/11/18 06:30:39;;;;;;;22.10;11.27;;;;;;;4.03;100.00;101845.69;4985169;28;20097;-88
2023/11/18 06:33:05;;;;;;;24.20;10.95;;;;;;;3.90;100.00;101844.72;4987979;28;20033;-88
2023/11/18 06:35:30;;;;;;;25.65;12.23;;;;;;;3.93;100.00;101848.03;4992126;28;20033;-86
2023/11/18 06:37:55;;;;;;;27.70;13.10;;;;;;;3.97;100.00;101860.09;5000095;28;20021;-85
2023/11/18 06:40:21;;;;;;;21.97;10.93;;;;;;;3.95;100.00;101850.56;4989143;28;20376;-86
2023/11/18 06:42:47;;;;;;;23.33;12.38;;;;;;;3.96;100.00;101849.66;4985297;28;20091;-89
2023/11/18 06:45:14;;;;;;;25.83;12.60;;;;;;;3.99;100.00;101865.31;4993696;28;20038;-89
2023/11/18 06:47:43;;;;;;;24.13;11.13;;;;;;;4.02;100.00;101870.41;4985187;28;20026;-89
2023/11/18 06:50:09;;;;;;;23.98;12.48;;;;;;;4.02;100.00;101875.69;4985157;28;20053;-88
2023/11/18 06:52:37;;;;;;;24.20;12.23;;;;;;;3.93;100.00;101866.53;5002335;28;20488;-89
2023/11/18 06:55:03;;;;;;;27.25;13.30;;;;;;;3.72;100.00;101868.66;4976273;28;20022;-89
2023/11/18 06:57:29;;;;;;;27.15;12.85;;;;;;;3.64;100.00;101873.53;4976409;28;20121;-89
2023/11/18 06:59:54;;;;;;;27.80;13.17;;;;;;;3.87;100.00;101892.47;4977702;28;20711;-88
2023/11/18 07:02:20;;;;;;;40.03;16.23;;;;;;;3.70;100.00;101874.94;4979550;28;20295;-89
2023/11/18 07:04:46;;;;;;;;;;;;;;;3.86;100.00;101893.38;4992931;28;20038;-89
2023/11/18 07:07:12;;;;;;;35.65;15.13;;;;;;;3.90;100.00;101887.84;4976397;28;19932;-88
2023/11/18 07:09:37;;;;;;;34.45;15.25;;;;;;;3.73;100.00;101880.91;4984260;28;20080;-89
2023/11/18 07:12:06;;;;;;;35.08;15.43;;;;;;;3.86;100.00;101902.16;4982268;28;20046;-88
2023/11/18 07:14:31;;;;;;;35.25;14.73;;;;;;;3.83;100.00;101893.59;4984495;28;20053;-88
2023/11/18 07:16:57;;;;;;;45.07;17.53;;;;;;;3.84;100.00;101893.50;4975102;28;20060;-88
2023/11/18 07:19:23;;;;;;;36.28;15.80;;;;;;;3.72;100.00;101888.91;4984315;28;20288;-89
2023/11/18 07:21:49;;;;;;;70.53;16.15;;;;;;;3.49;100.00;101875.28;4975950;28;20480;-89
2023/11/18 07:24:15;;;;;;;89.95;16.83;;;;;;;3.63;100.00;101898.25;4992231;28;20037;-90
2023/11/18 07:26:40;;;;;;;90.15;15.60;;;;;;;3.71;100.00;101900.44;4975757;28;20128;-89
2023/11/18 07:29:07;;;;;;;175.77;20.98;;;;;;;3.68;100.00;101909.41;4982935;28;20029;-88
2023/11/18 07:31:34;;;;;;;169.68;23.92;;;;;;;3.69;100.00;101905.81;4980783;28;20025;-87
2023/11/18 07:33:59;;;;;;;173.13;20.63;;;;;;;3.54;100.00;101901.44;4982524;28;20038;-88
2023/11/18 07:36:25;;;;;;;330.87;29.80;;;;;;;3.41;100.00;101903.06;4976239;28;20030;-89
2023/11/18 07:38:51;;;;;;;95.03;18.70;;;;;;;3.60;100.00;101916.91;4975817;28;20272;-88
2023/11/18 07:41:23;;;;;;;181.30;22.13;;;;;;;3.45;100.00;101918.63;4974755;28;20081;-88
2023/11/18 07:43:54;;;;;;;79.38;14.15;;;;;;;3.34;100.00;101921.88;4973386;28;20033;-88
2023/11/18 07:46:22;;;;;;;189.40;19.08;;;;;;;3.42;100.00;101931.16;5007884;28;20026;-88
2023/11/18 07:48:49;;;;;;;336.70;26.92;;;;;;;3.36;100.00;101925.28;4987083;28;20030;-88
2023/11/18 07:51:14;;;;;;;180.25;18.98;;;;;;;3.19;100.00;101911.34;4991501;28;20033;-88
2023/11/18 07:53:40;;;;;;;281.27;23.20;;;;;;;3.21;100.00;101917.38;5008418;28;20407;-89
2023/11/18 07:56:07;;;;;;;189.82;20.80;;;;;;;3.23;100.00;101924.28;4984089;28;20022;-89
2023/11/18 07:58:37;;;;;;;175.00;16.75;;;;;;;3.30;100.00;101932.69;4975185;28;20034;-87
2023/11/18 08:01:03;;;;;;;258.08;21.65;;;;;;;3.24;100.00;101918.06;4986665;28;20160;-89
2023/11/18 08:03:31;;;;;;;118.18;12.80;;;;;;;3.25;100.00;101918.91;4988993;28;20397;-89
2023/11/18 08:05:57;;;;;;;138.27;15.15;;;;;;;3.29;100.00;101923.94;4987127;28;20038;-89
2023/11/18 08:08:23;;;;;;;66.05;11.82;;;;;;;2.96;100.00;101901.13;4976442;28;20025;-88
2023/11/18 08:10:48;;;;;;;75.70;12.43;;;;;;;3.04;100.00;101918.31;4983890;28;20500;-89
2023/11/18 08:13:14;;;;;;;21.50;7.85;;;;;;;3.19;100.00;101925.41;4979882;28;20092;-89
2023/11/18 08:15:46;;;;;;;25.00;8.65;;;;;;;3.40;100.00;101930.41;4988896;28;20103;-88
2023/11/18 08:18:12;;;;;;;15.10;8.45;;;;;;;3.39;100.00;101918.97;4968214;28;20064;-90
2023/11/18 08:20:38;;;;;;;17.98;7.97;;;;;;;3.38;100.00;101915.50;4975360;28;20030;-90
2023/11/18 08:23:06;;;;;;;13.55;7.60;;;;;;;3.15;100.00;101884.28;4992021;28;20037;-88
2023/11/18 08:25:39;;;;;;;12.38;7.18;;;;;;;3.15;100.00;101885.13;4979772;28;20493;-88
2023/11/18 08:28:06;;;;;;;13.52;6.82;;;;;;;3.21;100.00;101888.34;4995919;28;20030;-89
2023/11/18 08:30:33;;;;;;;13.20;7.72;;;;;;;3.34;100.00;101890.19;4979344;28;20448;-88
2023/11/18 08:32:59;;;;;;;11.90;6.80;;;;;;;4.26;100.00;101941.22;4978954;28;20427;-89
2023/11/18 08:35:25;;;;;;;12.82;7.50;;;;;;;3.58;100.00;101874.75;4979335;28;20044;-90
2023/11/18 08:37:51;;;;;;;11.00;6.60;;;;;;;4.67;100.00;101928.13;4972782;28;20041;-89
2023/11/18 08:40:20;;;;;;;11.07;6.35;;;;;;;5.04;100.00;101917.88;4976979;28;20038;-89
2023/11/18 08:42:50;;;;;;;8.27;5.32;;;;;;;5.00;100.00;101874.84;4979185;28;20030;-89
2023/11/18 08:45:28;;;;;;;9.90;5.68;;;;;;;5.30;100.00;101868.53;4988420;28;20121;-88
2023/11/18 08:47:57;;;;;;;11.07;5.60;;;;;;;5.33;100.00;101839.19;4980787;28;20033;-88
2023/11/18 08:50:23;;;;;;;10.35;6.72;;;;;;;6.09;100.00;101858.84;4979580;28;20030;-89
2023/11/18 08:52:53;;;;;;;7.63;5.07;;;;;;;6.90;100.00;101853.06;4978787;28;20274;-89
2023/11/18 08:55:20;;;;;;;7.15;4.85;;;;;;;8.00;100.00;101809.34;4979207;28;20065;-88
2023/11/18 08:57:59;;;;;;;7.68;5.25;;;;;;;8.00;100.00;101707.44;4994798;28;20038;-88
2023/11/18 09:03:17;;;;;;;9.07;5.78;;;;;;;7.11;100.00;101396.53;5024625;28;20559;-89
2023/11/18 09:05:56;;;;;;;10.38;6.28;;;;;;;5.81;100.00;101478.25;4995404;28;20088;-89
2023/11/18 09:08:44;;;;;;;12.95;7.38;;;;;;;5.40;100.00;101543.84;5011489;28;20453;-88
2023/11/18 09:11:14;;;;;;;13.23;6.80;;;;;;;5.54;100.00;101597.66;5010782;28;20038;-90
2023/11/18 09:13:42;;;;;;;11.13;7.03;;;;;;;5.66;100.00;101647.13;4990665;28;20021;-90
2023/11/18 09:16:08;;;;;;;12.80;7.45;;;;;;;5.61;100.00;101646.59;4986943;28;20026;-89
2023/11/18 09:18:34;;;;;;;;;;;;;;;5.03;100.00;101641.75;4985546;28;20034;-87
2023/11/18 09:21:02;;;;;;;11.80;7.15;;;;;;;5.09;100.00;101704.00;4987065;28;19917;-88
2023/11/18 09:23:29;;;;;;;14.52;8.25;;;;;;;4.86;100.00;101708.19;4978403;28;20029;-87
2023/11/18 09:25:54;;;;;;;12.73;7.63;;;;;;;4.93;100.00;101741.22;4994778;28;20025;-88
2023/11/18 09:28:21;;;;;;;14.43;7.07;;;;;;;5.05;100.00;101732.47;4978634;28;20037;-87
2023/11/18 09:30:49;;;;;;;13.73;8.23;;;;;;;5.04;100.00;101732.59;4986717;28;20053;-87
2023/11/18 09:33:32;;;;;;;18.80;8.27;;;;;;;4.74;100.00;101698.44;4990626;28;20052;-89
2023/11/18 09:36:07;;;;;;;57.00;9.90;;;;;;;3.70;100.00;101680.38;4991350;28;20053;-88
2023/11/18 09:38:37;;;;;;;53.27;11.77;;;;;;;3.93;100.00;101765.25;4983481;28;20045;-88
2023/11/18 09:41:12;;;;;;;20.27;8.30;;;;;;;4.19;100.00;101822.66;4982487;28;20093;-87
2023/11/18 09:43:43;;;;;;;18.45;9.55;;;;;;;4.39;100.00;101862.88;4994349;28;20396;-88
2023/11/18 09:46:32;;;;;;;16.48;8.18;;;;;;;4.22;100.00;101818.97;5002385;28;20030;-87
2023/11/18 09:49:14;;;;;;;17.08;9.20;;;;;;;4.63;100.00;101849.88;5002312;28;20567;-88
2023/11/18 09:51:42;;;;;;;22.23;9.45;;;;;;;3.88;100.00;101789.31;4978105;28;20029;-88
2023/11/18 09:54:33;;;;;;;20.75;10.60;;;;;;;3.66;100.00;101808.25;4977889;28;20021;-88
2023/11/18 09:57:29;;;;;;;24.00;11.05;;;;;;;3.75;100.00;101841.22;4977923;28;20034;-88
2023/11/18 10:00:19;;;;;;;25.15;11.93;;;;;;;3.90;100.00;101879.06;4992372;28;20037;-87
2023/11/18 10:02:46;;;;;;;27.17;11.02;;;;;;;3.98;100.00;101890.00;4993669;28;20173;-87
2023/11/18 10:05:13;;;;;;;26.33;11.55;;;;;;;4.02;100.00;101875.69;4977675;28;20499;-87
2023/11/18 10:07:42;;;;;;;22.75;11.32;;;;;;;3.95;100.00;101869.91;4984299;28;20087;-88
2023/11/18 10:10:16;;;;;;;20.95;10.75;;;;;;;4.20;100.00;101879.84;4988074;28;20500;-88
2023/11/18 10:12:44;;;;;;;22.55;11.73;;;;;;;4.14;100.00;101859.06;5014756;28;20042;-87
2023/11/18 10:15:13;;;;;;;23.17;11.23;;;;;;;4.30;100.00;101858.16;4989746;28;20076;-87
2023/11/18 10:17:54;;;;;;;20.77;10.70;;;;;;;4.64;100.00;101868.31;5002071;28;20412;-88
2023/11/18 10:20:41;;;;;;;21.65;10.40;;;;;;;4.60;100.00;101864.16;4986446;28;20500;-87
2023/11/18 10:23:11;;;;;;;22.50;11.85;;;;;;;4.14;100.00;101815.94;4992998;28;20081;-87
2023/11/18 10:25:42;;;;;;;23.55;12.52;;;;;;;4.41;100.00;101856.53;5002002;28;20037;-86
2023/11/18 10:28:09;;;;;;;21.40;10.98;;;;;;;4.50;100.00;101846.34;4977080;28;20092;-88
2023/11/18 10:30:46;;;;;;;21.25;12.48;;;;;;;4.34;100.00;101830.56;4992949;28;20061;-87
2023/11/18 10:33:14;;;;;;;22.60;10.35;;;;;;;4.18;100.00;101820.94;4993024;28;20033;-88
2023/11/18 10:35:50;;;;;;;20.77;12.50;;;;;;;4.52;100.00;101833.84;4993648;28;20014;-88
2023/11/18 10:38:16;;;;;;;19.38;11.10;;;;;;;4.77;100.00;101839.28;4993198;28;20486;-88
2023/11/18 10:40:42;;;;;;;19.70;9.73;;;;;;;6.07;100.00;101908.47;5021579;23;20052;-74
2023/11/18 10:43:09;;;;;;;17.58;8.80;;;;;;;7.31;100.00;101891.69;5025106;28;20052;-73
2023/11/18 10:45:38;;;;;;;14.40;9.13;;;;;;;7.03;100.00;101736.19;5024215;28;20029;-75
2023/11/18 10:48:07;;;;;;;15.52;8.85;;;;;;;6.68;100.00;101612.28;5039331;28;20131;-73
2023/11/18 10:50:33;;;;;;;12.10;7.55;;;;;;;7.13;100.00;101630.94;5028701;28;20028;-73
2023/11/18 10:53:01;;;;;;;15.27;9.88;;;;;;;6.71;100.00;101478.50;5011046;28;20088;-73
2023/11/18 10:55:37;;;;;;;18.92;10.30;;;;;;;6.19;100.00;101514.34;5009404;28;20136;-74
2023/11/18 10:58:04;;;;;;;;;;;;;;;6.21;100.00;101570.75;5018141;28;20036;-73
2023/11/18 11:00:45;;;;;;;18.58;10.38;;;;;;;6.70;100.00;101614.81;5026942;28;20531;-74
2023/11/18 11:03:14;;;;;;;17.20;9.95;;;;;;;7.21;100.00;101576.38;5010556;28;20539;-73
2023/11/18 11:05:41;;;;;;;17.60;10.43;;;;;;;7.96;100.00;101520.72;5010317;28;20026;-72
2023/11/18 11:08:07;;;;;;;16.88;9.93;;;;;;;7.70;100.00;101378.47;5036460;28;20492;-76
2023/11/18 11:10:33;;;;;;;18.33;11.25;;;;;;;7.69;100.00;101318.31;5010659;28;20022;-73
2023/11/18 11:13:01;;;;;;;15.40;9.30;;;;;;;7.52;100.00;101309.94;5010079;28;20029;-73
2023/11/18 11:15:31;;;;;;;17.08;10.45;;;;;;;6.96;100.00;101220.75;5011458;28;20033;-73
2023/11/18 11:18:14;;;;;;;16.65;11.25;;;;;;;7.82;100.00;101378.28;4999327;28;20075;-73
2023/11/18 11:20:48;;;;;;;15.98;9.82;;;;;;;7.57;100.00;101233.34;5032807;28;20029;-73
2023/11/18 11:23:43;;;;;;;18.38;10.57;;;;;;;7.59;100.00;101231.41;5032225;28;20037;-73
2023/11/18 11:26:09;;;;;;;16.15;10.38;;;;;;;7.48;100.00;101199.59;5010376;28;20041;-73
2023/11/18 11:28:46;;;;;;;16.73;9.47;;;;;;;6.78;100.00;101141.81;5010300;28;20033;-73